.
WxDataArchive / Data Records for 2006-09-28
2006-09-27 September 2006 2006-09-29

Data Records for Thursday, 28 September 2006

Time	Temp	Chill	HIndex	Humid	Dewpt	 Wind 	HiWind	WindDir	Rain 	Barom 
-----	----	-----	------	-----	-----	------	------	-------	-----	----- 
00:00	55.9	55.9	55.9	84	51.1	0	0	---	0.00	29.724 
00:05	55.6	55.6	55.6	85	51.2	0	0	---	0.00	29.724 
00:10	55.3	55.3	55.3	86	51.2	0	0	---	0.00	29.724 
00:15	55.1	55.1	55.1	87	51.3	0	0	---	0.00	29.728 
00:20	55.0	55.0	55.0	87	51.2	0	0	---	0.00	29.728 
00:25	54.8	54.8	54.8	86	50.7	0	1	315	0.00	29.728 
00:30	54.8	54.8	54.8	85	50.4	0	1	315	0.00	29.725 
00:35	54.8	54.8	54.8	85	50.4	0	1	315	0.00	29.725 
00:40	54.8	54.8	54.8	86	50.7	0	1	315	0.00	29.725 
00:45	54.7	54.7	54.7	86	50.6	0	1	315	0.00	29.730 
00:50	54.5	54.5	54.5	86	50.4	0	1	315	0.00	29.730 
00:55	54.5	54.5	54.5	86	50.4	0	1	315	0.00	29.730 
01:00	54.5	54.5	54.5	86	50.4	0	1	315	0.00	29.737 
01:05	54.5	54.5	54.5	85	50.1	0	1	315	0.00	29.737 
01:10	54.5	54.5	54.5	86	50.4	0	1	315	0.00	29.737 
01:15	54.5	54.5	54.5	86	50.4	0	1	315	0.00	29.742 
01:20	54.4	54.4	54.4	86	50.3	0	1	315	0.00	29.742 
01:25	54.4	54.4	54.4	86	50.3	0	1	315	0.00	29.742 
01:30	54.2	54.2	54.2	86	50.1	0	1	315	0.00	29.746 
01:35	54.2	54.2	54.2	86	50.1	0	1	315	0.00	29.746 
01:40	54.1	54.1	54.1	86	50.0	0	1	315	0.00	29.746 
01:45	53.9	53.9	53.9	86	49.8	0	0	---	0.00	29.749 
01:50	53.9	53.9	53.9	86	49.8	0	0	---	0.00	29.749 
01:55	53.8	53.8	53.8	87	50.0	0	0	---	0.00	29.749 
02:00	53.6	53.6	53.6	87	49.8	0	1	315	0.00	29.738 
02:05	53.5	53.5	53.5	87	49.7	0	1	315	0.00	29.738 
02:10	53.5	53.5	53.5	87	49.7	0	0	---	0.00	29.738 
02:15	53.3	53.3	53.3	88	49.8	0	0	---	0.00	29.737 
02:20	53.2	53.2	53.2	88	49.7	0	0	---	0.00	29.737 
02:25	53.2	53.2	53.2	88	49.7	0	0	---	0.00	29.737 
02:30	53.1	53.1	53.1	88	49.6	0	0	---	0.00	29.738 
02:35	52.9	52.9	52.9	87	49.1	0	0	---	0.00	29.738 
02:40	52.9	52.9	52.9	88	49.4	0	0	---	0.00	29.738 
02:45	52.8	52.8	52.8	88	49.3	0	0	---	0.00	29.737 
02:50	52.8	52.8	52.8	88	49.3	0	0	---	0.00	29.737 
02:55	52.6	52.6	52.6	88	49.1	0	0	---	0.00	29.737 
03:00	52.6	52.6	52.6	88	49.1	0	0	---	0.00	29.738 
03:05	52.5	52.5	52.5	88	49.0	0	0	---	0.00	29.738 
03:10	52.5	52.5	52.5	88	49.0	0	1	315	0.00	29.738 
03:15	52.3	52.3	52.3	88	48.9	0	1	315	0.00	29.748 
03:20	52.3	52.3	52.3	88	48.9	0	1	315	0.00	29.748 
03:25	52.3	52.3	52.3	88	48.9	0	0	---	0.00	29.748 
03:30	52.2	52.2	52.2	88	48.8	0	0	---	0.00	29.746 
03:35	52.0	52.0	52.0	88	48.6	0	1	315	0.00	29.746 
03:40	51.9	51.9	51.9	88	48.5	0	0	---	0.00	29.746 
03:45	51.9	51.9	51.9	88	48.5	0	1	315	0.00	29.746 
03:50	51.9	51.9	51.9	88	48.5	0	1	315	0.00	29.746 
03:55	51.7	51.7	51.7	88	48.3	0	1	315	0.00	29.746 
04:00	51.7	51.7	51.7	87	48.0	0	1	315	0.00	29.742 
04:05	51.6	51.6	51.6	87	47.9	0	1	315	0.00	29.742 
04:10	51.6	51.6	51.6	87	47.9	0	0	---	0.00	29.742 
04:15	51.4	51.4	51.4	87	47.7	0	0	---	0.00	29.751 
04:20	51.4	51.4	51.4	88	48.0	0	0	---	0.00	29.751 
04:25	51.4	51.4	51.4	88	48.0	0	0	---	0.00	29.751 
04:30	51.3	51.3	51.3	88	47.9	0	0	---	0.00	29.747 
04:35	51.3	51.3	51.3	88	47.9	0	1	315	0.00	29.747 
04:40	51.3	51.3	51.3	88	47.9	0	1	315	0.00	29.747 
04:45	51.3	51.3	51.3	87	47.6	0	1	315	0.00	29.747 
04:50	51.3	51.3	51.3	88	47.9	0	0	---	0.00	29.747 
04:55	51.1	51.1	51.1	87	47.4	0	0	---	0.00	29.747 
05:00	51.1	51.1	51.1	87	47.4	0	0	---	0.00	29.745 
05:05	51.0	51.0	51.0	87	47.3	0	0	---	0.00	29.745 
05:10	51.0	51.0	51.0	88	47.6	0	0	---	0.00	29.745 
05:15	51.0	51.0	51.0	88	47.6	0	0	---	0.00	29.749 
05:20	50.8	50.8	50.8	88	47.4	0	0	---	0.00	29.749 
05:25	50.7	50.7	50.7	88	47.3	0	0	---	0.00	29.749 
05:30	50.5	50.5	50.5	88	47.1	0	0	---	0.00	29.754 
05:35	50.5	50.5	50.5	89	47.4	0	1	315	0.00	29.754 
05:40	50.4	50.4	50.4	89	47.3	0	1	315	0.00	29.754 
05:45	50.4	50.4	50.4	89	47.3	0	1	315	0.00	29.758 
05:50	50.2	50.2	50.2	89	47.1	0	1	315	0.00	29.758 
05:55	50.1	50.1	50.1	89	47.0	0	0	---	0.00	29.758 
06:00	50.1	50.1	50.1	89	47.0	0	1	315	0.00	29.765 
06:05	49.9	49.9	49.9	89	46.8	0	1	315	0.00	29.765 
06:10	49.9	49.9	49.9	89	46.8	0	0	---	0.00	29.765 
06:15	49.8	49.8	49.8	89	46.7	0	0	---	0.00	29.767 
06:20	49.6	49.6	49.6	89	46.5	0	0	---	0.00	29.767 
06:25	49.5	49.5	49.5	89	46.4	0	0	---	0.00	29.767 
06:30	49.4	49.4	49.4	89	46.3	0	0	---	0.00	29.770 
06:35	49.2	49.2	49.2	90	46.4	0	1	315	0.00	29.770 
06:40	49.2	49.2	49.2	90	46.4	0	1	315	0.00	29.770 
06:45	49.1	49.1	49.1	90	46.3	0	0	---	0.00	29.771 
06:50	48.9	48.9	48.9	90	46.1	0	0	---	0.00	29.771 
06:55	48.6	48.6	48.6	90	45.8	0	0	---	0.00	29.771 
07:00	48.5	48.5	48.5	91	46.0	0	0	---	0.00	29.772 
07:05	48.3	48.3	48.3	91	45.8	0	0	---	0.00	29.772 
07:10	48.2	48.2	48.2	91	45.7	0	0	---	0.00	29.772 
07:15	48.0	48.0	48.0	91	45.5	0	0	---	0.00	29.782 
07:20	48.0	48.0	48.0	92	45.8	0	0	---	0.00	29.782 
07:25	47.9	47.9	47.9	92	45.7	0	0	---	0.00	29.782 
07:30	47.6	47.6	47.6	92	45.4	0	0	---	0.00	29.784 
07:35	47.4	47.4	47.4	92	45.2	0	0	---	0.00	29.784 
07:40	47.3	47.3	47.3	92	45.1	0	0	---	0.00	29.784 
07:45	47.3	47.3	47.3	92	45.1	0	0	---	0.00	29.786 
07:50	47.1	47.1	47.1	92	44.9	0	0	---	0.00	29.786 
07:55	47.1	47.1	47.1	93	45.2	0	0	---	0.00	29.786 
08:00	47.0	47.0	47.0	93	45.1	0	0	---	0.00	29.787 
08:05	47.0	47.0	47.0	93	45.1	0	0	---	0.00	29.787 
08:10	47.0	47.0	47.0	93	45.1	0	1	315	0.00	29.787 
08:15	47.0	47.0	47.0	93	45.1	0	0	---	0.00	29.788 
08:20	47.0	47.0	47.0	93	45.1	0	0	---	0.00	29.788 
08:25	47.0	47.0	47.0	93	45.1	0	0	---	0.00	29.788 
08:30	47.0	47.0	47.0	94	45.4	0	1	315	0.00	29.789 
08:35	47.0	47.0	47.0	94	45.4	0	0	---	0.00	29.789 
08:40	47.1	47.1	47.1	94	45.5	0	0	---	0.00	29.789 
08:45	47.4	47.4	47.4	94	45.8	0	1	315	0.00	29.796 
08:50	47.7	47.7	47.7	94	46.1	0	1	315	0.00	29.796 
08:55	47.9	47.9	47.9	93	46.0	0	1	315	0.00	29.796 
09:00	48.3	48.3	48.3	93	46.4	0	1	315	0.00	29.798 
09:05	48.6	48.6	48.6	92	46.4	0	1	270	0.00	29.798 
09:10	49.4	49.4	49.4	92	47.2	0	1	270	0.00	29.798 
09:15	49.8	49.8	49.8	89	46.7	0	1	270	0.00	29.800 
09:20	50.1	50.1	50.1	88	46.7	0	1	270	0.00	29.800 
09:25	50.4	50.4	50.4	87	46.7	0	2	270	0.00	29.800 
09:30	50.5	50.5	50.5	85	46.2	0	2	248	0.00	29.801 
09:35	50.5	50.5	50.5	85	46.2	0	1	248	0.00	29.801 
09:40	50.5	50.5	50.5	84	45.8	0	1	248	0.00	29.801 
09:45	50.7	50.7	50.7	85	46.4	0	1	292	0.00	29.804 
09:50	50.5	50.5	50.5	84	45.8	0	3	292	0.00	29.804 
09:55	50.8	50.8	50.8	85	46.5	0	2	315	0.00	29.804 
10:00	51.3	51.3	51.3	84	46.6	0	2	315	0.00	29.810 
10:05	51.9	51.9	51.9	82	46.6	0	2	315	0.00	29.810 
10:10	52.6	52.6	52.6	81	46.9	1	3	22	0.00	29.810 
10:15	53.2	53.2	53.2	81	47.5	1	3	270	0.00	29.814 
10:20	53.6	53.6	53.6	77	46.6	1	4	270	0.00	29.814 
10:25	53.8	53.8	53.8	77	46.8	1	4	22	0.00	29.814 
10:30	54.2	54.2	54.2	77	47.1	1	3	270	0.00	29.809 
10:35	54.5	54.5	54.5	74	46.4	1	2	338	0.00	29.809 
10:40	54.7	54.7	54.7	75	46.9	0	2	292	0.00	29.809 
10:45	54.5	54.5	54.5	71	45.3	1	2	315	0.00	29.807 
10:50	54.2	54.2	54.2	71	45.0	0	3	338	0.00	29.807 
10:55	54.2	54.2	54.2	73	45.7	1	3	22	0.00	29.807 
11:00	54.1	54.1	54.1	70	44.5	1	3	90	0.00	29.811 
11:05	53.9	53.9	53.9	74	45.8	1	4	0	0.00	29.811 
11:10	53.9	53.9	53.9	74	45.8	0	2	112	0.00	29.811 
11:15	53.6	53.6	53.6	74	45.5	0	2	292	0.00	29.811 
11:20	53.6	53.6	53.6	74	45.5	0	2	292	0.00	29.811 
11:25	53.8	53.8	53.8	73	45.3	0	3	292	0.00	29.811 
11:30	54.2	54.2	54.2	70	44.6	0	2	292	0.00	29.811 
11:35	54.4	54.4	54.4	70	44.8	1	3	292	0.00	29.811 
11:40	54.8	54.8	54.8	71	45.6	0	2	248	0.00	29.811 
11:45	55.9	55.9	55.9	69	45.9	1	2	248	0.00	29.805 
11:50	56.3	56.3	56.3	64	44.3	1	4	292	0.00	29.805 
11:55	56.2	56.2	56.2	64	44.2	0	2	315	0.00	29.805 
12:00	55.9	55.9	55.9	67	45.1	0	2	338	0.00	29.801 
12:05	56.3	56.3	56.3	66	45.1	1	2	315	0.00	29.801 
12:10	56.9	56.9	56.9	63	44.4	1	3	315	0.00	29.801 
12:15	56.7	56.7	56.7	64	44.7	1	3	292	0.00	29.801 
12:20	56.7	56.7	56.7	66	45.5	1	4	45	0.00	29.801 
12:25	57.2	57.2	57.2	61	43.9	1	5	338	0.00	29.801 
12:30	58.0	58.0	58.0	60	44.2	1	4	248	0.00	29.799 
12:35	58.0	58.0	58.0	62	45.1	1	3	158	0.00	29.799 
12:40	57.6	57.6	57.6	60	43.8	0	2	0	0.00	29.799 
12:45	56.7	56.7	56.7	58	42.1	1	7	68	0.00	29.799 
12:50	56.0	56.0	56.0	61	42.7	0	2	315	0.00	29.799 
12:55	56.5	56.5	56.5	68	46.1	0	3	338	0.00	29.799 
13:00	57.5	57.5	57.5	60	43.7	1	2	292	0.00	29.798 
13:05	57.2	57.2	57.2	59	43.0	1	4	292	0.00	29.798 
13:10	56.7	56.7	56.7	59	42.5	0	2	270	0.00	29.798 
13:15	56.9	56.9	56.9	62	44.0	1	4	45	0.00	29.800 
13:20	57.3	57.3	57.3	58	42.6	1	2	45	0.00	29.800 
13:25	58.1	58.1	58.1	64	46.0	1	3	45	0.00	29.800 
13:30	58.0	58.0	58.0	58	43.3	1	4	292	0.00	29.800 
13:35	57.3	57.3	57.3	57	42.2	1	2	338	0.00	29.800 
13:40	57.0	57.0	57.0	60	43.3	0	2	292	0.00	29.800 
13:45	56.6	56.6	56.6	59	42.4	0	2	315	0.00	29.804 
13:50	56.2	56.2	56.2	61	42.9	0	2	270	0.00	29.804 
13:55	55.9	55.9	55.9	60	42.2	0	2	292	0.00	29.804 
14:00	55.7	55.7	55.7	62	42.9	1	4	315	0.00	29.809 
14:05	55.9	55.9	55.9	63	43.5	0	2	270	0.00	29.809 
14:10	55.9	55.9	55.9	62	43.1	0	2	315	0.00	29.809 
14:15	56.0	56.0	56.0	62	43.2	0	1	315	0.00	29.811 
14:20	56.2	56.2	56.2	62	43.4	1	3	315	0.00	29.811 
14:25	56.0	56.0	56.0	62	43.2	1	4	270	0.00	29.811 
14:30	56.0	56.0	56.0	62	43.2	0	2	270	0.00	29.810 
14:35	56.3	56.3	56.3	61	43.0	0	2	292	0.00	29.810 
14:40	57.2	57.2	57.2	60	43.4	1	3	292	0.00	29.810 
14:45	58.3	58.3	58.3	59	44.0	1	4	270	0.00	29.803 
14:50	57.6	57.6	57.6	60	43.8	1	9	338	0.00	29.803 
14:55	56.6	56.6	56.6	61	43.3	1	3	338	0.00	29.803 
15:00	55.3	55.3	55.3	64	43.3	1	3	315	0.00	29.811 
15:05	54.4	54.4	54.4	65	42.9	0	2	292	0.00	29.811 
15:10	54.2	54.2	54.2	70	44.6	0	1	292	0.00	29.811 
15:15	54.8	54.8	54.8	70	45.2	0	1	292	0.00	29.811 
15:20	55.4	55.4	55.4	67	44.6	1	3	0	0.00	29.811 
15:25	55.7	55.7	55.7	65	44.1	1	3	45	0.00	29.811 
15:30	56.0	56.0	56.0	65	44.4	0	2	45	0.00	29.809 
15:35	56.3	56.3	56.3	66	45.1	0	1	45	0.00	29.809 
15:40	56.7	56.7	56.7	65	45.1	0	1	45	0.00	29.809 
15:45	57.2	57.2	57.2	65	45.5	0	1	45	0.00	29.804 
15:50	57.8	57.8	57.8	59	43.6	0	2	45	0.00	29.804 
15:55	58.0	58.0	58.0	62	45.1	1	2	22	0.00	29.804 
16:00	58.3	58.3	58.3	58	43.6	1	3	315	0.00	29.808 
16:05	57.5	57.5	57.5	56	41.9	0	3	315	0.00	29.808 
16:10	57.0	57.0	57.0	55	41.0	0	2	270	0.00	29.808 
16:15	57.2	57.2	57.2	56	41.6	0	1	270	0.00	29.807 
16:20	58.0	58.0	58.0	58	43.3	0	2	315	0.00	29.807 
16:25	58.4	58.4	58.4	55	42.3	1	4	315	0.00	29.807 
16:30	57.8	57.8	57.8	56	42.2	1	3	315	0.00	29.810 
16:35	57.5	57.5	57.5	59	43.3	1	3	292	0.00	29.810 
16:40	57.0	57.0	57.0	59	42.8	1	2	315	0.00	29.810 
16:45	56.9	56.9	56.9	58	42.3	1	3	315	0.00	29.812 
16:50	57.0	57.0	57.0	58	42.4	0	2	0	0.00	29.812 
16:55	57.0	57.0	57.0	58	42.4	0	2	292	0.00	29.812 
17:00	57.0	57.0	57.0	58	42.4	0	5	45	0.00	29.813 
17:05	57.2	57.2	57.2	60	43.4	0	2	338	0.00	29.813 
17:10	57.5	57.5	57.5	56	41.9	0	2	338	0.00	29.813 
17:15	57.6	57.6	57.6	55	41.6	0	1	338	0.00	29.816 
17:20	57.2	57.2	57.2	55	41.2	0	3	270	0.00	29.816 
17:25	56.7	56.7	56.7	54	40.2	0	2	270	0.00	29.816 
17:30	56.3	56.3	56.3	56	40.8	1	6	292	0.00	29.821 
17:35	56.0	56.0	56.0	58	41.4	1	5	315	0.00	29.821 
17:40	55.7	55.7	55.7	61	42.5	1	3	270	0.00	29.821 
17:45	55.4	55.4	55.4	62	42.6	0	1	270	0.00	29.831 
17:50	55.3	55.3	55.3	62	42.5	0	1	270	0.00	29.831 
17:55	55.3	55.3	55.3	62	42.5	0	1	270	0.00	29.831 
18:00	55.3	55.3	55.3	62	42.5	0	1	270	0.00	29.836 
18:05	55.4	55.4	55.4	62	42.6	0	1	270	0.00	29.836 
18:10	55.6	55.6	55.6	62	42.8	0	1	270	0.00	29.836 
18:15	55.4	55.4	55.4	65	43.8	2	6	270	0.00	29.850 
18:20	54.5	54.5	54.5	68	44.2	2	4	315	0.00	29.850 
18:25	53.8	53.8	53.8	70	44.2	1	4	315	0.00	29.850 
18:30	53.2	53.2	53.2	72	44.4	1	3	315	0.00	29.855 
18:35	52.9	52.9	52.9	73	44.5	1	2	315	0.00	29.855 
18:40	52.8	52.8	52.8	74	44.7	1	2	248	0.00	29.855 
18:45	52.5	52.5	52.5	74	44.5	1	3	248	0.00	29.857 
18:50	52.3	52.3	52.3	74	44.3	1	3	315	0.00	29.857 
18:55	52.3	52.3	52.3	75	44.6	0	2	315	0.00	29.857 
19:00	52.2	52.2	52.2	75	44.5	0	2	270	0.00	29.868 
19:05	52.0	52.0	52.0	75	44.3	1	2	292	0.00	29.868 
19:10	51.9	51.9	51.9	75	44.2	0	2	292	0.00	29.868 
19:15	51.7	51.7	51.7	75	44.0	0	1	292	0.00	29.872 
19:20	51.7	51.7	51.7	75	44.0	0	1	315	0.00	29.872 
19:25	51.6	51.6	51.6	74	43.6	1	2	315	0.00	29.872 
19:30	51.6	51.6	51.6	74	43.6	1	3	315	0.00	29.875 
19:35	51.6	51.6	51.6	74	43.6	1	3	315	0.00	29.875 
19:40	51.4	51.4	51.4	73	43.0	1	4	315	0.00	29.875 
19:45	51.4	51.4	51.4	73	43.0	1	3	338	0.00	29.874 
19:50	51.3	51.3	51.3	73	42.9	1	3	315	0.00	29.874 
19:55	51.3	51.3	51.3	73	42.9	0	1	338	0.00	29.874 
20:00	51.1	51.1	51.1	73	42.7	1	3	315	0.00	29.877 
20:05	51.1	51.1	51.1	73	42.7	0	2	292	0.00	29.877 
20:10	51.0	51.0	51.0	73	42.7	0	1	292	0.00	29.877 
20:15	51.0	51.0	51.0	73	42.7	0	1	292	0.00	29.882 
20:20	50.8	50.8	50.8	74	42.8	0	3	292	0.00	29.882 
20:25	50.7	50.7	50.7	74	42.7	0	2	292	0.00	29.882 
20:30	50.5	50.5	50.5	75	42.9	0	2	292	0.00	29.882 
20:35	50.5	50.5	50.5	75	42.9	1	5	270	0.00	29.882 
20:40	50.4	50.4	50.4	75	42.8	0	3	315	0.00	29.882 
20:45	50.4	50.4	50.4	76	43.1	0	2	315	0.00	29.885 
20:50	50.2	50.2	50.2	76	42.9	0	2	248	0.00	29.885 
20:55	50.1	50.1	50.1	77	43.2	0	2	315	0.00	29.885 
21:00	49.9	49.9	49.9	77	43.0	0	1	315	0.00	29.888 
21:05	49.8	49.8	49.8	78	43.2	1	2	315	0.00	29.888 
21:10	49.6	49.6	49.6	78	43.0	0	2	315	0.00	29.888 
21:15	49.5	49.5	49.5	79	43.3	0	1	315	0.00	29.889 
21:20	49.4	49.4	49.4	79	43.2	0	1	315	0.00	29.889 
21:25	49.2	49.2	49.2	80	43.3	0	1	315	0.00	29.889 
21:30	49.1	49.1	49.1	80	43.2	0	1	315	0.00	29.890 
21:35	48.9	48.9	48.9	81	43.3	0	2	315	0.00	29.890 
21:40	48.8	48.8	48.8	81	43.2	0	1	315	0.00	29.890 
21:45	48.6	48.6	48.6	81	43.0	0	1	315	0.00	29.892 
21:50	48.6	48.6	48.6	81	43.0	0	1	315	0.00	29.892 
21:55	48.5	48.5	48.5	82	43.3	0	1	315	0.00	29.892 
22:00	48.2	48.2	48.2	82	43.0	0	1	315	0.00	29.896 
22:05	48.0	48.0	48.0	82	42.8	0	1	315	0.00	29.896 
22:10	47.9	47.9	47.9	83	43.0	0	1	315	0.00	29.896 
22:15	47.6	47.6	47.6	83	42.7	0	1	315	0.00	29.898 
22:20	47.4	47.4	47.4	84	42.8	0	1	315	0.00	29.898 
22:25	47.3	47.3	47.3	84	42.7	0	0	---	0.00	29.898 
22:30	47.0	47.0	47.0	84	42.4	0	1	315	0.00	29.895 
22:35	46.8	46.8	46.8	85	42.5	0	1	315	0.00	29.895 
22:40	46.7	46.7	46.7	85	42.4	0	0	---	0.00	29.895 
22:45	46.5	46.5	46.5	85	42.2	0	0	---	0.00	29.893 
22:50	46.4	46.4	46.4	85	42.1	0	0	---	0.00	29.893 
22:55	46.2	46.2	46.2	86	42.2	0	0	---	0.00	29.893 
23:00	46.0	46.0	46.0	86	42.0	0	0	---	0.00	29.898 
23:05	45.8	45.8	45.8	86	41.9	0	0	---	0.00	29.898 
23:10	45.7	45.7	45.7	87	42.1	0	0	---	0.00	29.898 
23:15	45.5	45.5	45.5	87	41.9	0	0	---	0.00	29.897 
23:20	45.4	45.4	45.4	87	41.8	0	1	315	0.00	29.897 
23:25	45.4	45.4	45.4	87	41.8	0	1	315	0.00	29.897 
23:30	45.4	45.4	45.4	87	41.8	0	1	315	0.00	29.900 
23:35	45.4	45.4	45.4	86	41.5	0	1	315	0.00	29.900 
23:40	45.4	45.4	45.4	86	41.5	0	2	315	0.00	29.900 
23:45	45.4	45.4	45.4	86	41.5	0	1	315	0.00	29.900 
23:50	45.4	45.4	45.4	86	41.5	0	1	315	0.00	29.900 
23:55	45.2	45.2	45.2	86	41.3	0	1	315	0.00	29.900 

CoCoRaHS
IN-AL-39
A2 Web Hosting
Creative Commons License
GoDaddy
Look for:

loaded 2017-12-12 01:58:11 • last modified 2010-11-18 10:43:29
Privacy PolicyDisclaimer
• wx.awcolley.com is powered by PmWiki v.2002016 •
• all content (unless otherwise noted) © 2017 A W Colley